Huvudsida
METAR-TAF:

METAR-TAF

Flygplatser :

Greater Natal International Airport

Natal, Rio Grande do Norte, Brasilien

latitud: 05-46-05S, longitud: 035-22-34W, höjd: 88 m

Aktuellt väderrapport

Denna rapport gjordes för 30 minuter sedan, klockan 08:00 UTC
Vind 4 kt från ost/nordost
Temperatur 24°C
Fuktighet 94%
Tryck 1013 hPa
Sikt 10 km eller mer
Få moln på en höjd av 1900 ft
Brutna moln på en höjd av 7000 ft

METAR: SBSG 160800Z 06004KT 9999 FEW019 BKN070 24/23 Q1013

Tid: 05:30 (08:30 UTC)

Väderprognos

Denna rapport gjordes för 6 timmar och 30 minuter sedan, klockan 02:00 UTC
Prognos gäller från 16 kl. 06 UTC till 17 kl. 06 UTC
Vind 4 kt från syd/sydväst
Sikt 10 km eller mer
Spridda moln på en höjd av 1900 ft
Blir
från 16 kl. 11 UTC till 16 kl. 12 UTC
Vind 15 kt från syd/sydost
Blir
från 16 kl. 21 UTC till 16 kl. 22 UTC
Vind 8 kt från syd/sydost

TAF: SBSG 160200Z 1606/1706 21004KT 9999 SCT019 TN24/1608Z TX30/1615Z BECMG 1611/1612 15015KT BECMG 1621/1622 16008KT RMK PBO

Aktuella väderrapporter och prognoser från 4000 flygplatser (METAR- och TAF-rapporter).

De tillgängliga stationerna syns som gula och röda prickar på kartan.

För musen över prickarna för att se namnen på stationerna.

Klicka sedan för att få väderrapporter och prognoser.

För att ändra kartan: Klicka på de gröna knapparna med ett svart kors på för att zooma in; den gröna knappen med ett streck på för att zooma ut; eller på de gröna pilarna för angränsande kartor.


METAR-TAF: